sensor_id;sensor_type;location;lat;lon;timestamp;temperature;humidity
69359;HTU21D;56520;49.066;8.660;2023-10-13T00:02:10;17.30;80.33
69359;HTU21D;56520;49.066;8.660;2023-10-13T00:04:36;17.29;80.39
69359;HTU21D;56520;49.066;8.660;2023-10-13T00:07:02;17.28;80.64
69359;HTU21D;56520;49.066;8.660;2023-10-13T00:09:28;17.23;80.53
69359;HTU21D;56520;49.066;8.660;2023-10-13T00:12:07;17.22;80.43
69359;HTU21D;56520;49.066;8.660;2023-10-13T00:14:39;17.20;80.44
69359;HTU21D;56520;49.066;8.660;2023-10-13T00:17:06;17.19;80.45
69359;HTU21D;56520;49.066;8.660;2023-10-13T00:19:45;17.17;80.59
69359;HTU21D;56520;49.066;8.660;2023-10-13T00:22:13;17.15;80.68
69359;HTU21D;56520;49.066;8.660;2023-10-13T00:24:42;17.13;80.78
69359;HTU21D;56520;49.066;8.660;2023-10-13T00:27:18;17.09;81.09
69359;HTU21D;56520;49.066;8.660;2023-10-13T00:29:53;17.05;81.67
69359;HTU21D;56520;49.066;8.660;2023-10-13T00:32:38;16.98;81.68
69359;HTU21D;56520;49.066;8.660;2023-10-13T00:35:06;16.92;81.63
69359;HTU21D;56520;49.066;8.660;2023-10-13T00:37:31;16.88;81.83
69359;HTU21D;56520;49.066;8.660;2023-10-13T00:40:07;16.82;81.96
69359;HTU21D;56520;49.066;8.660;2023-10-13T00:42:42;16.78;82.57
69359;HTU21D;56520;49.066;8.660;2023-10-13T00:45:16;16.73;82.33
69359;HTU21D;56520;49.066;8.660;2023-10-13T00:47:42;16.66;82.55
69359;HTU21D;56520;49.066;8.660;2023-10-13T00:50:22;16.62;82.88
69359;HTU21D;56520;49.066;8.660;2023-10-13T00:52:49;16.59;83.13
69359;HTU21D;56520;49.066;8.660;2023-10-13T00:55:18;16.54;82.97
69359;HTU21D;56520;49.066;8.660;2023-10-13T00:57:44;16.50;83.49
69359;HTU21D;56520;49.066;8.660;2023-10-13T01:00:12;16.46;83.39
69359;HTU21D;56520;49.066;8.660;2023-10-13T01:02:45;16.43;83.55
69359;HTU21D;56520;49.066;8.660;2023-10-13T01:05:11;16.40;83.78
69359;HTU21D;56520;49.066;8.660;2023-10-13T01:07:45;16.36;83.63
69359;HTU21D;56520;49.066;8.660;2023-10-13T01:10:11;16.35;83.55
69359;HTU21D;56520;49.066;8.660;2023-10-13T01:12:40;16.32;83.81
69359;HTU21D;56520;49.066;8.660;2023-10-13T01:15:08;16.28;83.51
69359;HTU21D;56520;49.066;8.660;2023-10-13T01:17:36;16.27;83.62
69359;HTU21D;56520;49.066;8.660;2023-10-13T01:20:02;16.26;83.58
69359;HTU21D;56520;49.066;8.660;2023-10-13T01:22:30;16.25;83.66
69359;HTU21D;56520;49.066;8.660;2023-10-13T01:24:57;16.25;83.87
69359;HTU21D;56520;49.066;8.660;2023-10-13T01:27:31;16.25;83.87
69359;HTU21D;56520;49.066;8.660;2023-10-13T01:29:56;16.22;83.78
69359;HTU21D;56520;49.066;8.660;2023-10-13T01:32:31;16.20;83.92
69359;HTU21D;56520;49.066;8.660;2023-10-13T01:34:56;16.18;83.83
69359;HTU21D;56520;49.066;8.660;2023-10-13T01:37:23;16.18;84.07
69359;HTU21D;56520;49.066;8.660;2023-10-13T01:39:48;16.16;84.29
69359;HTU21D;56520;49.066;8.660;2023-10-13T01:42:15;16.12;83.96
69359;HTU21D;56520;49.066;8.660;2023-10-13T01:44:45;16.10;84.08
69359;HTU21D;56520;49.066;8.660;2023-10-13T01:47:10;16.08;84.08
69359;HTU21D;56520;49.066;8.660;2023-10-13T01:49:38;16.06;84.27
69359;HTU21D;56520;49.066;8.660;2023-10-13T01:52:14;16.02;84.25
69359;HTU21D;56520;49.066;8.660;2023-10-13T01:54:46;15.99;84.08
69359;HTU21D;56520;49.066;8.660;2023-10-13T01:57:14;15.96;84.11
69359;HTU21D;56520;49.066;8.660;2023-10-13T01:59:44;15.92;84.28
69359;HTU21D;56520;49.066;8.660;2023-10-13T02:02:10;15.88;84.21
69359;HTU21D;56520;49.066;8.660;2023-10-13T02:04:39;15.85;84.35
69359;HTU21D;56520;49.066;8.660;2023-10-13T02:07:17;15.78;84.39
69359;HTU21D;56520;49.066;8.660;2023-10-13T02:09:42;15.72;84.30
69359;HTU21D;56520;49.066;8.660;2023-10-13T02:12:08;15.68;84.29
69359;HTU21D;56520;49.066;8.660;2023-10-13T02:14:35;15.62;84.25
69359;HTU21D;56520;49.066;8.660;2023-10-13T02:17:02;15.59;84.32
69359;HTU21D;56520;49.066;8.660;2023-10-13T02:19:42;15.55;84.44
69359;HTU21D;56520;49.066;8.660;2023-10-13T02:22:11;15.48;84.42
69359;HTU21D;56520;49.066;8.660;2023-10-13T02:24:37;15.45;84.74
69359;HTU21D;56520;49.066;8.660;2023-10-13T02:27:07;15.38;84.78
69359;HTU21D;56520;49.066;8.660;2023-10-13T02:29:40;15.31;84.90
69359;HTU21D;56520;49.066;8.660;2023-10-13T02:32:06;15.25;84.84
69359;HTU21D;56520;49.066;8.660;2023-10-13T02:34:38;15.18;85.12
69359;HTU21D;56520;49.066;8.660;2023-10-13T02:37:09;15.13;85.09
69359;HTU21D;56520;49.066;8.660;2023-10-13T02:39:35;15.07;85.45
69359;HTU21D;56520;49.066;8.660;2023-10-13T02:42:01;15.02;85.57
69359;HTU21D;56520;49.066;8.660;2023-10-13T02:44:32;14.97;85.80
69359;HTU21D;56520;49.066;8.660;2023-10-13T02:46:58;14.91;86.03
69359;HTU21D;56520;49.066;8.660;2023-10-13T02:49:25;14.85;85.84
69359;HTU21D;56520;49.066;8.660;2023-10-13T02:51:52;14.82;86.22
69359;HTU21D;56520;49.066;8.660;2023-10-13T02:54:18;14.77;86.65
69359;HTU21D;56520;49.066;8.660;2023-10-13T02:56:45;14.69;86.61
69359;HTU21D;56520;49.066;8.660;2023-10-13T02:59:30;14.65;86.44
69359;HTU21D;56520;49.066;8.660;2023-10-13T03:02:05;14.59;86.29
69359;HTU21D;56520;49.066;8.660;2023-10-13T03:04:54;14.56;86.28
69359;HTU21D;56520;49.066;8.660;2023-10-13T03:07:29;14.54;86.36
69359;HTU21D;56520;49.066;8.660;2023-10-13T03:09:57;14.53;86.21
69359;HTU21D;56520;49.066;8.660;2023-10-13T03:12:23;14.52;86.03
69359;HTU21D;56520;49.066;8.660;2023-10-13T03:14:50;14.50;86.07
69359;HTU21D;56520;49.066;8.660;2023-10-13T03:17:28;14.49;85.95
69359;HTU21D;56520;49.066;8.660;2023-10-13T03:19:59;14.49;85.85
69359;HTU21D;56520;49.066;8.660;2023-10-13T03:22:26;14.49;85.72
69359;HTU21D;56520;49.066;8.660;2023-10-13T03:25:00;14.48;85.74
69359;HTU21D;56520;49.066;8.660;2023-10-13T03:27:30;14.44;85.61
69359;HTU21D;56520;49.066;8.660;2023-10-13T03:30:25;14.44;85.65
69359;HTU21D;56520;49.066;8.660;2023-10-13T03:33:06;14.41;85.61
69359;HTU21D;56520;49.066;8.660;2023-10-13T03:35:34;14.39;85.79
69359;HTU21D;56520;49.066;8.660;2023-10-13T03:38:04;14.36;85.67
69359;HTU21D;56520;49.066;8.660;2023-10-13T03:40:29;14.35;85.74
69359;HTU21D;56520;49.066;8.660;2023-10-13T03:42:56;14.30;85.76
69359;HTU21D;56520;49.066;8.660;2023-10-13T03:48:14;14.25;86.00
69359;HTU21D;56520;49.066;8.660;2023-10-13T03:50:53;14.21;86.06
69359;HTU21D;56520;49.066;8.660;2023-10-13T03:53:39;14.19;86.41
69359;HTU21D;56520;49.066;8.660;2023-10-13T03:56:22;14.14;86.64
69359;HTU21D;56520;49.066;8.660;2023-10-13T03:58:57;14.12;86.67
69359;HTU21D;56520;49.066;8.660;2023-10-13T04:01:25;14.11;86.99
69359;HTU21D;56520;49.066;8.660;2023-10-13T04:04:10;14.04;86.69
69359;HTU21D;56520;49.066;8.660;2023-10-13T04:06:40;14.01;86.99
69359;HTU21D;56520;49.066;8.660;2023-10-13T04:09:20;13.97;87.25
69359;HTU21D;56520;49.066;8.660;2023-10-13T04:11:58;13.93;87.01
69359;HTU21D;56520;49.066;8.660;2023-10-13T04:14:35;13.88;87.06
69359;HTU21D;56520;49.066;8.660;2023-10-13T04:17:19;13.84;87.12
69359;HTU21D;56520;49.066;8.660;2023-10-13T04:19:48;13.81;87.34
69359;HTU21D;56520;49.066;8.660;2023-10-13T04:22:32;13.74;87.13
69359;HTU21D;56520;49.066;8.660;2023-10-13T04:25:25;13.69;87.44
69359;HTU21D;56520;49.066;8.660;2023-10-13T04:28:08;13.63;87.44
69359;HTU21D;56520;49.066;8.660;2023-10-13T04:30:47;13.58;87.51
69359;HTU21D;56520;49.066;8.660;2023-10-13T04:36:15;13.54;87.44
69359;HTU21D;56520;49.066;8.660;2023-10-13T04:44:14;13.47;87.64
69359;HTU21D;56520;49.066;8.660;2023-10-13T04:46:49;13.45;87.60
69359;HTU21D;56520;49.066;8.660;2023-10-13T04:49:14;13.44;87.70
69359;HTU21D;56520;49.066;8.660;2023-10-13T04:52:04;13.45;87.77
69359;HTU21D;56520;49.066;8.660;2023-10-13T04:54:33;13.44;87.56
69359;HTU21D;56520;49.066;8.660;2023-10-13T04:57:02;13.43;87.57
69359;HTU21D;56520;49.066;8.660;2023-10-13T04:59:50;13.44;87.70
69359;HTU21D;56520;49.066;8.660;2023-10-13T05:02:44;13.44;87.57
69359;HTU21D;56520;49.066;8.660;2023-10-13T05:05:22;13.44;87.45
69359;HTU21D;56520;49.066;8.660;2023-10-13T05:07:51;13.46;87.37
69359;HTU21D;56520;49.066;8.660;2023-10-13T05:10:35;13.46;87.47
69359;HTU21D;56520;49.066;8.660;2023-10-13T05:13:19;13.46;87.45
69359;HTU21D;56520;49.066;8.660;2023-10-13T05:16:04;13.43;87.48
69359;HTU21D;56520;49.066;8.660;2023-10-13T05:18:48;13.43;87.64
69359;HTU21D;56520;49.066;8.660;2023-10-13T05:21:31;13.41;87.47
69359;HTU21D;56520;49.066;8.660;2023-10-13T05:24:16;13.41;87.41
69359;HTU21D;56520;49.066;8.660;2023-10-13T05:27:00;13.40;87.54
69359;HTU21D;56520;49.066;8.660;2023-10-13T05:29:45;13.38;87.43
69359;HTU21D;56520;49.066;8.660;2023-10-13T05:32:30;13.38;87.35
69359;HTU21D;56520;49.066;8.660;2023-10-13T05:35:15;13.37;87.38
69359;HTU21D;56520;49.066;8.660;2023-10-13T05:38:00;13.35;87.28
69359;HTU21D;56520;49.066;8.660;2023-10-13T05:40:57;13.32;87.19
69359;HTU21D;56520;49.066;8.660;2023-10-13T05:43:41;13.31;87.19
69359;HTU21D;56520;49.066;8.660;2023-10-13T05:46:26;13.25;87.13
69359;HTU21D;56520;49.066;8.660;2023-10-13T05:48:52;13.21;87.05
69359;HTU21D;56520;49.066;8.660;2023-10-13T05:51:30;13.20;86.98
69359;HTU21D;56520;49.066;8.660;2023-10-13T05:54:15;13.17;86.99
69359;HTU21D;56520;49.066;8.660;2023-10-13T05:59:31;13.10;87.11
69359;HTU21D;56520;49.066;8.660;2023-10-13T06:02:17;13.07;87.24
69359;HTU21D;56520;49.066;8.660;2023-10-13T06:05:02;13.00;87.23
69359;HTU21D;56520;49.066;8.660;2023-10-13T06:07:46;12.94;87.37
69359;HTU21D;56520;49.066;8.660;2023-10-13T06:10:30;12.90;87.64
69359;HTU21D;56520;49.066;8.660;2023-10-13T06:13:14;12.86;87.99
69359;HTU21D;56520;49.066;8.660;2023-10-13T06:15:58;12.81;88.16
69359;HTU21D;56520;49.066;8.660;2023-10-13T06:18:42;12.82;88.48
69359;HTU21D;56520;49.066;8.660;2023-10-13T06:21:26;12.79;88.57
69359;HTU21D;56520;49.066;8.660;2023-10-13T06:24:10;12.80;88.57
69359;HTU21D;56520;49.066;8.660;2023-10-13T06:26:54;12.82;88.56
69359;HTU21D;56520;49.066;8.660;2023-10-13T06:29:38;12.85;88.60
69359;HTU21D;56520;49.066;8.660;2023-10-13T06:32:03;12.86;88.67
69359;HTU21D;56520;49.066;8.660;2023-10-13T06:34:36;12.90;88.58
69359;HTU21D;56520;49.066;8.660;2023-10-13T06:37:14;12.93;88.51
69359;HTU21D;56520;49.066;8.660;2023-10-13T06:39:53;13.00;88.35
69359;HTU21D;56520;49.066;8.660;2023-10-13T06:42:26;13.05;88.09
69359;HTU21D;56520;49.066;8.660;2023-10-13T06:44:53;13.14;87.96
69359;HTU21D;56520;49.066;8.660;2023-10-13T06:47:19;13.18;87.82
69359;HTU21D;56520;49.066;8.660;2023-10-13T06:49:45;13.23;87.72
69359;HTU21D;56520;49.066;8.660;2023-10-13T06:52:13;13.29;87.68
69359;HTU21D;56520;49.066;8.660;2023-10-13T06:54:39;13.35;87.60
69359;HTU21D;56520;49.066;8.660;2023-10-13T06:57:06;13.41;87.52
69359;HTU21D;56520;49.066;8.660;2023-10-13T06:59:42;13.48;87.46
69359;HTU21D;56520;49.066;8.660;2023-10-13T07:02:08;13.55;87.38
69359;HTU21D;56520;49.066;8.660;2023-10-13T07:04:36;13.63;87.23
69359;HTU21D;56520;49.066;8.660;2023-10-13T07:07:05;13.71;87.16
69359;HTU21D;56520;49.066;8.660;2023-10-13T07:09:31;13.81;86.96
69359;HTU21D;56520;49.066;8.660;2023-10-13T07:12:04;13.94;86.65
69359;HTU21D;56520;49.066;8.660;2023-10-13T07:14:32;14.07;85.84
69359;HTU21D;56520;49.066;8.660;2023-10-13T07:17:06;14.21;85.42
69359;HTU21D;56520;49.066;8.660;2023-10-13T07:19:33;14.37;85.09
69359;HTU21D;56520;49.066;8.660;2023-10-13T07:22:00;14.53;84.79
69359;HTU21D;56520;49.066;8.660;2023-10-13T07:24:45;14.68;83.97
69359;HTU21D;56520;49.066;8.660;2023-10-13T07:27:17;14.81;83.58
69359;HTU21D;56520;49.066;8.660;2023-10-13T07:29:51;14.97;83.64
69359;HTU21D;56520;49.066;8.660;2023-10-13T07:32:43;15.13;82.74
69359;HTU21D;56520;49.066;8.660;2023-10-13T07:35:12;15.28;82.94
69359;HTU21D;56520;49.066;8.660;2023-10-13T07:37:41;15.42;82.88
69359;HTU21D;56520;49.066;8.660;2023-10-13T07:40:10;15.57;82.26
69359;HTU21D;56520;49.066;8.660;2023-10-13T07:42:50;15.75;81.31
69359;HTU21D;56520;49.066;8.660;2023-10-13T07:45:16;15.95;81.31
69359;HTU21D;56520;49.066;8.660;2023-10-13T07:47:53;16.15;80.95
69359;HTU21D;56520;49.066;8.660;2023-10-13T07:50:18;16.37;81.01
69359;HTU21D;56520;49.066;8.660;2023-10-13T07:52:50;16.58;80.91
69359;HTU21D;56520;49.066;8.660;2023-10-13T07:55:44;16.80;80.85
69359;HTU21D;56520;49.066;8.660;2023-10-13T07:58:10;17.01;80.26
69359;HTU21D;56520;49.066;8.660;2023-10-13T08:00:37;17.17;80.23
69359;HTU21D;56520;49.066;8.660;2023-10-13T08:03:08;17.30;80.49
69359;HTU21D;56520;49.066;8.660;2023-10-13T08:05:57;17.41;80.57
69359;HTU21D;56520;49.066;8.660;2023-10-13T08:08:45;17.65;80.28
69359;HTU21D;56520;49.066;8.660;2023-10-13T08:11:15;17.97;78.65
69359;HTU21D;56520;49.066;8.660;2023-10-13T08:13:56;18.34;77.29
69359;HTU21D;56520;49.066;8.660;2023-10-13T08:16:25;18.55;76.68
69359;HTU21D;56520;49.066;8.660;2023-10-13T08:19:10;18.72;75.97
69359;HTU21D;56520;49.066;8.660;2023-10-13T08:21:36;18.72;76.16
69359;HTU21D;56520;49.066;8.660;2023-10-13T08:24:02;18.86;75.73
69359;HTU21D;56520;49.066;8.660;2023-10-13T08:26:32;19.10;75.10
69359;HTU21D;56520;49.066;8.660;2023-10-13T08:29:16;19.30;74.77
69359;HTU21D;56520;49.066;8.660;2023-10-13T08:31:45;19.53;74.37
69359;HTU21D;56520;49.066;8.660;2023-10-13T08:34:28;19.68;74.19
69359;HTU21D;56520;49.066;8.660;2023-10-13T08:37:04;19.80;74.18
69359;HTU21D;56520;49.066;8.660;2023-10-13T08:39:44;19.91;74.32
69359;HTU21D;56520;49.066;8.660;2023-10-13T08:42:30;19.99;74.48
69359;HTU21D;56520;49.066;8.660;2023-10-13T08:45:17;20.09;74.06
69359;HTU21D;56520;49.066;8.660;2023-10-13T08:47:52;20.28;73.64
69359;HTU21D;56520;49.066;8.660;2023-10-13T08:58:36;21.83;65.78
69359;HTU21D;56520;49.066;8.660;2023-10-13T09:01:34;21.99;64.11
69359;HTU21D;56520;49.066;8.660;2023-10-13T09:04:07;21.82;65.17
69359;HTU21D;56520;49.066;8.660;2023-10-13T09:06:50;21.65;65.33
69359;HTU21D;56520;49.066;8.660;2023-10-13T09:12:13;21.08;68.03
69359;HTU21D;56520;49.066;8.660;2023-10-13T09:14:43;20.83;68.77
69359;HTU21D;56520;49.066;8.660;2023-10-13T09:17:13;20.64;69.11
69359;HTU21D;56520;49.066;8.660;2023-10-13T09:19:51;20.54;69.34
69359;HTU21D;56520;49.066;8.660;2023-10-13T09:22:27;20.44;69.75
69359;HTU21D;56520;49.066;8.660;2023-10-13T09:24:55;20.35;70.01
69359;HTU21D;56520;49.066;8.660;2023-10-13T09:27:27;20.46;70.20
69359;HTU21D;56520;49.066;8.660;2023-10-13T09:29:59;20.76;70.12
69359;HTU21D;56520;49.066;8.660;2023-10-13T09:32:46;21.53;69.20
69359;HTU21D;56520;49.066;8.660;2023-10-13T09:35:20;22.44;67.72
69359;HTU21D;56520;49.066;8.660;2023-10-13T09:37:52;23.11;66.04
69359;HTU21D;56520;49.066;8.660;2023-10-13T09:40:21;23.58;64.83
69359;HTU21D;56520;49.066;8.660;2023-10-13T09:42:51;24.25;61.26
69359;HTU21D;56520;49.066;8.660;2023-10-13T09:45:17;24.78;60.69
69359;HTU21D;56520;49.066;8.660;2023-10-13T09:47:46;25.03;59.32
69359;HTU21D;56520;49.066;8.660;2023-10-13T09:50:18;25.05;57.60
69359;HTU21D;56520;49.066;8.660;2023-10-13T09:52:50;25.38;51.68
69359;HTU21D;56520;49.066;8.660;2023-10-13T09:55:30;25.72;49.11
69359;HTU21D;56520;49.066;8.660;2023-10-13T09:58:05;25.97;48.15
69359;HTU21D;56520;49.066;8.660;2023-10-13T10:00:55;26.24;47.83
69359;HTU21D;56520;49.066;8.660;2023-10-13T10:03:47;26.57;45.86
69359;HTU21D;56520;49.066;8.660;2023-10-13T10:06:58;26.90;46.22
69359;HTU21D;56520;49.066;8.660;2023-10-13T10:09:29;27.01;46.04
69359;HTU21D;56520;49.066;8.660;2023-10-13T10:17:56;26.40;48.74
69359;HTU21D;56520;49.066;8.660;2023-10-13T10:20:36;26.25;48.58
69359;HTU21D;56520;49.066;8.660;2023-10-13T10:23:10;26.35;48.25
69359;HTU21D;56520;49.066;8.660;2023-10-13T10:25:43;26.58;42.84
69359;HTU21D;56520;49.066;8.660;2023-10-13T10:28:10;27.02;40.25
69359;HTU21D;56520;49.066;8.660;2023-10-13T10:30:40;27.37;39.50
69359;HTU21D;56520;49.066;8.660;2023-10-13T10:33:08;27.61;39.18
69359;HTU21D;56520;49.066;8.660;2023-10-13T10:35:45;27.87;37.35
69359;HTU21D;56520;49.066;8.660;2023-10-13T10:38:18;28.01;37.11
69359;HTU21D;56520;49.066;8.660;2023-10-13T10:40:59;28.11;37.37
69359;HTU21D;56520;49.066;8.660;2023-10-13T10:46:28;28.43;34.28
69359;HTU21D;56520;49.066;8.660;2023-10-13T10:48:57;28.55;33.37
69359;HTU21D;56520;49.066;8.660;2023-10-13T10:51:26;28.63;32.34
69359;HTU21D;56520;49.066;8.660;2023-10-13T10:54:02;28.64;32.58
69359;HTU21D;56520;49.066;8.660;2023-10-13T10:56:37;28.62;32.65
69359;HTU21D;56520;49.066;8.660;2023-10-13T10:59:05;28.67;34.24
69359;HTU21D;56520;49.066;8.660;2023-10-13T11:01:32;28.86;32.54
69359;HTU21D;56520;49.066;8.660;2023-10-13T11:04:04;28.97;32.83
69359;HTU21D;56520;49.066;8.660;2023-10-13T11:06:34;29.07;32.60
69359;HTU21D;56520;49.066;8.660;2023-10-13T11:09:06;29.12;32.25
69359;HTU21D;56520;49.066;8.660;2023-10-13T11:11:45;29.20;30.11
69359;HTU21D;56520;49.066;8.660;2023-10-13T11:14:19;29.20;31.09
69359;HTU21D;56520;49.066;8.660;2023-10-13T11:16:49;29.23;30.37
69359;HTU21D;56520;49.066;8.660;2023-10-13T11:19:41;29.29;28.76
69359;HTU21D;56520;49.066;8.660;2023-10-13T11:22:11;29.19;29.43
69359;HTU21D;56520;49.066;8.660;2023-10-13T11:24:57;29.13;30.34
69359;HTU21D;56520;49.066;8.660;2023-10-13T11:27:32;29.15;29.30
69359;HTU21D;56520;49.066;8.660;2023-10-13T11:30:18;29.08;30.25
69359;HTU21D;56520;49.066;8.660;2023-10-13T11:33:09;29.06;29.03
69359;HTU21D;56520;49.066;8.660;2023-10-13T11:35:36;29.13;29.10
69359;HTU21D;56520;49.066;8.660;2023-10-13T11:38:15;29.18;28.93
69359;HTU21D;56520;49.066;8.660;2023-10-13T11:40:50;29.20;28.98
69359;HTU21D;56520;49.066;8.660;2023-10-13T11:43:38;29.20;29.21
69359;HTU21D;56520;49.066;8.660;2023-10-13T11:46:07;29.23;28.53
69359;HTU21D;56520;49.066;8.660;2023-10-13T11:48:33;29.28;28.68
69359;HTU21D;56520;49.066;8.660;2023-10-13T11:51:06;29.29;28.40
69359;HTU21D;56520;49.066;8.660;2023-10-13T11:53:34;29.36;27.68
69359;HTU21D;56520;49.066;8.660;2023-10-13T11:56:03;29.33;27.51
69359;HTU21D;56520;49.066;8.660;2023-10-13T11:58:38;29.28;27.87
69359;HTU21D;56520;49.066;8.660;2023-10-13T12:01:04;29.27;28.10
69359;HTU21D;56520;49.066;8.660;2023-10-13T12:03:41;29.34;27.83
69359;HTU21D;56520;49.066;8.660;2023-10-13T12:06:27;29.38;27.68
69359;HTU21D;56520;49.066;8.660;2023-10-13T12:09:12;29.42;27.52
69359;HTU21D;56520;49.066;8.660;2023-10-13T12:11:38;29.45;27.47
69359;HTU21D;56520;49.066;8.660;2023-10-13T12:14:11;29.26;27.25
69359;HTU21D;56520;49.066;8.660;2023-10-13T12:16:43;28.87;28.68
69359;HTU21D;56520;49.066;8.660;2023-10-13T12:19:14;28.88;28.47
69359;HTU21D;56520;49.066;8.660;2023-10-13T12:21:42;29.12;27.51
69359;HTU21D;56520;49.066;8.660;2023-10-13T12:24:09;29.16;27.61
69359;HTU21D;56520;49.066;8.660;2023-10-13T12:26:46;29.26;26.88
69359;HTU21D;56520;49.066;8.660;2023-10-13T12:29:12;29.17;27.39
69359;HTU21D;56520;49.066;8.660;2023-10-13T12:31:47;29.05;27.74
69359;HTU21D;56520;49.066;8.660;2023-10-13T12:34:26;29.15;27.94
69359;HTU21D;56520;49.066;8.660;2023-10-13T12:37:11;29.39;27.10
69359;HTU21D;56520;49.066;8.660;2023-10-13T12:39:57;29.70;26.96
69359;HTU21D;56520;49.066;8.660;2023-10-13T12:42:41;29.82;27.04
69359;HTU21D;56520;49.066;8.660;2023-10-13T12:45:25;29.96;26.71
69359;HTU21D;56520;49.066;8.660;2023-10-13T12:48:08;29.98;26.21
69359;HTU21D;56520;49.066;8.660;2023-10-13T12:50:52;30.13;25.07
69359;HTU21D;56520;49.066;8.660;2023-10-13T12:53:33;30.00;25.73
69359;HTU21D;56520;49.066;8.660;2023-10-13T12:55:58;29.81;25.67
69359;HTU21D;56520;49.066;8.660;2023-10-13T12:58:23;29.53;26.42
69359;HTU21D;56520;49.066;8.660;2023-10-13T13:00:52;29.51;26.01
69359;HTU21D;56520;49.066;8.660;2023-10-13T13:03:26;29.29;25.86
69359;HTU21D;56520;49.066;8.660;2023-10-13T13:05:54;29.06;26.94
69359;HTU21D;56520;49.066;8.660;2023-10-13T13:08:21;29.35;26.33
69359;HTU21D;56520;49.066;8.660;2023-10-13T13:10:48;29.45;26.19
69359;HTU21D;56520;49.066;8.660;2023-10-13T13:13:13;29.48;25.90
69359;HTU21D;56520;49.066;8.660;2023-10-13T13:15:42;29.66;25.61
69359;HTU21D;56520;49.066;8.660;2023-10-13T13:18:07;29.76;25.20
69359;HTU21D;56520;49.066;8.660;2023-10-13T13:20:37;29.78;25.49
69359;HTU21D;56520;49.066;8.660;2023-10-13T13:23:04;29.78;25.07
69359;HTU21D;56520;49.066;8.660;2023-10-13T13:25:30;29.49;26.33
69359;HTU21D;56520;49.066;8.660;2023-10-13T13:27:57;29.52;26.33
69359;HTU21D;56520;49.066;8.660;2023-10-13T13:30:25;29.57;25.62
69359;HTU21D;56520;49.066;8.660;2023-10-13T13:33:00;29.64;25.88
69359;HTU21D;56520;49.066;8.660;2023-10-13T13:35:29;29.78;25.07
69359;HTU21D;56520;49.066;8.660;2023-10-13T13:38:00;29.57;26.14
69359;HTU21D;56520;49.066;8.660;2023-10-13T13:40:37;29.37;26.29
69359;HTU21D;56520;49.066;8.660;2023-10-13T13:43:02;29.32;25.85
69359;HTU21D;56520;49.066;8.660;2023-10-13T13:45:28;29.38;26.23
69359;HTU21D;56520;49.066;8.660;2023-10-13T13:47:54;29.53;25.36
69359;HTU21D;56520;49.066;8.660;2023-10-13T13:50:24;29.61;25.12
69359;HTU21D;56520;49.066;8.660;2023-10-13T13:52:55;29.63;25.01
69359;HTU21D;56520;49.066;8.660;2023-10-13T13:55:22;29.78;24.19
69359;HTU21D;56520;49.066;8.660;2023-10-13T13:57:48;29.80;24.77
69359;HTU21D;56520;49.066;8.660;2023-10-13T14:00:18;29.73;25.27
69359;HTU21D;56520;49.066;8.660;2023-10-13T14:03:05;29.92;24.27
69359;HTU21D;56520;49.066;8.660;2023-10-13T14:05:40;29.83;24.94
69359;HTU21D;56520;49.066;8.660;2023-10-13T14:08:06;29.81;25.27
69359;HTU21D;56520;49.066;8.660;2023-10-13T14:10:37;29.83;24.67
69359;HTU21D;56520;49.066;8.660;2023-10-13T14:13:23;29.93;24.01
69359;HTU21D;56520;49.066;8.660;2023-10-13T14:16:08;29.76;24.90
69359;HTU21D;56520;49.066;8.660;2023-10-13T14:18:44;29.76;25.02
69359;HTU21D;56520;49.066;8.660;2023-10-13T14:21:10;29.93;23.66
69359;HTU21D;56520;49.066;8.660;2023-10-13T14:23:36;29.76;24.94
69359;HTU21D;56520;49.066;8.660;2023-10-13T14:26:01;29.70;24.67
69359;HTU21D;56520;49.066;8.660;2023-10-13T14:28:27;29.73;24.36
69359;HTU21D;56520;49.066;8.660;2023-10-13T14:31:04;29.64;24.65
69359;HTU21D;56520;49.066;8.660;2023-10-13T14:33:35;29.61;24.77
69359;HTU21D;56520;49.066;8.660;2023-10-13T14:36:03;29.54;24.69
69359;HTU21D;56520;49.066;8.660;2023-10-13T14:38:30;29.53;24.88
69359;HTU21D;56520;49.066;8.660;2023-10-13T14:40:56;29.33;25.61
69359;HTU21D;56520;49.066;8.660;2023-10-13T14:43:23;29.22;25.80
69359;HTU21D;56520;49.066;8.660;2023-10-13T14:45:53;29.15;25.64
69359;HTU21D;56520;49.066;8.660;2023-10-13T14:48:18;29.05;26.22
69359;HTU21D;56520;49.066;8.660;2023-10-13T14:50:43;28.99;26.17
69359;HTU21D;56520;49.066;8.660;2023-10-13T14:53:10;28.97;26.19
69359;HTU21D;56520;49.066;8.660;2023-10-13T14:55:36;29.02;25.80
69359;HTU21D;56520;49.066;8.660;2023-10-13T14:58:04;28.86;25.88
69359;HTU21D;56520;49.066;8.660;2023-10-13T15:00:30;28.76;26.33
69359;HTU21D;56520;49.066;8.660;2023-10-13T15:02:57;28.68;26.37
69359;HTU21D;56520;49.066;8.660;2023-10-13T15:05:26;28.61;26.39
69359;HTU21D;56520;49.066;8.660;2023-10-13T15:07:57;28.53;26.94
69359;HTU21D;56520;49.066;8.660;2023-10-13T15:10:25;28.45;27.09
69359;HTU21D;56520;49.066;8.660;2023-10-13T15:12:50;28.41;27.44
69359;HTU21D;56520;49.066;8.660;2023-10-13T15:15:16;28.34;27.65
69359;HTU21D;56520;49.066;8.660;2023-10-13T15:17:44;28.31;27.70
69359;HTU21D;56520;49.066;8.660;2023-10-13T15:20:10;28.30;26.59
69359;HTU21D;56520;49.066;8.660;2023-10-13T15:22:41;28.20;27.13
69359;HTU21D;56520;49.066;8.660;2023-10-13T15:25:07;28.11;27.39
69359;HTU21D;56520;49.066;8.660;2023-10-13T15:27:46;28.02;27.24
69359;HTU21D;56520;49.066;8.660;2023-10-13T15:30:21;27.94;27.45
69359;HTU21D;56520;49.066;8.660;2023-10-13T15:32:48;27.87;27.61
69359;HTU21D;56520;49.066;8.660;2023-10-13T15:35:14;27.76;27.68
69359;HTU21D;56520;49.066;8.660;2023-10-13T15:37:41;27.71;27.64
69359;HTU21D;56520;49.066;8.660;2023-10-13T15:40:13;27.65;27.50
69359;HTU21D;56520;49.066;8.660;2023-10-13T15:42:42;27.58;27.78
69359;HTU21D;56520;49.066;8.660;2023-10-13T15:45:07;27.50;27.63
69359;HTU21D;56520;49.066;8.660;2023-10-13T15:47:43;27.43;27.77
69359;HTU21D;56520;49.066;8.660;2023-10-13T15:50:14;27.35;28.00
69359;HTU21D;56520;49.066;8.660;2023-10-13T15:52:46;27.23;27.47
69359;HTU21D;56520;49.066;8.660;2023-10-13T15:55:13;27.16;27.97
69359;HTU21D;56520;49.066;8.660;2023-10-13T15:57:39;27.07;28.27
69359;HTU21D;56520;49.066;8.660;2023-10-13T16:00:08;26.97;28.09
69359;HTU21D;56520;49.066;8.660;2023-10-13T16:02:57;26.86;28.33
69359;HTU21D;56520;49.066;8.660;2023-10-13T16:05:23;26.80;28.46
69359;HTU21D;56520;49.066;8.660;2023-10-13T16:07:51;26.68;28.81
69359;HTU21D;56520;49.066;8.660;2023-10-13T16:10:16;26.62;28.53
69359;HTU21D;56520;49.066;8.660;2023-10-13T16:12:42;26.50;28.90
69359;HTU21D;56520;49.066;8.660;2023-10-13T16:15:10;26.41;28.87
69359;HTU21D;56520;49.066;8.660;2023-10-13T16:17:39;26.37;28.64
69359;HTU21D;56520;49.066;8.660;2023-10-13T16:20:07;26.31;28.66
69359;HTU21D;56520;49.066;8.660;2023-10-13T16:22:44;26.22;29.03
69359;HTU21D;56520;49.066;8.660;2023-10-13T16:25:10;26.09;29.00
69359;HTU21D;56520;49.066;8.660;2023-10-13T16:27:39;25.97;29.11